Mandarin Trader — 9V8353 — position and weather

sailwx.info

Track history (hours):
 
Tides and Currents Weather Stations Pressure Air Temp Water Temp Dewpoint Dewpoint Depression Visibility Wind Speed Wind Dir Waves Ship Positions

Mandarin Trader

Last reported at 2018-Apr-21 16:14 UTC. Time now 2018-Jul-18 02:55 UTC.
Position N 24°53' E 122°15'.
Warning: this ship's position is months out of date.

Length 190 m; draft 6.8 m.

Type: Other ship. MMSI: 566227000.

Date/timePositionNaut miles runAvg speedWind from/ knotsBaromVisibWave heightAir tempDewpointWater temp
2018-Apr-21 16:14N 24°53' E 122°15'911.1
2018-Apr-21 15:27N 25°01' E 122°12'1111.9
2018-Apr-21 14:30N 25°10' E 122°04'612.7
2018-Apr-21 14:00N 25°14' E 121°59'612.7
2018-Apr-21 13:30N 25°18' E 121°53'713.0
2018-Apr-21 13:00N 25°22' E 121°48'713.2
2018-Apr-21 12:29N 25°26' E 121°42'814.0
2018-Apr-21 11:55N 25°31' E 121°35'714.2
2018-Apr-21 11:27N 25°35' E 121°29'  
2018-Apr-11 22:02N 25°40' E 121°40'112.3
2018-Apr-11 21:56N 25°39' E 121°41'2012.6
2018-Apr-11 20:22N 25°28' E 121°59'511.6
2018-Apr-11 19:58N 25°25' E 122°03'610.8
2018-Apr-11 19:24N 25°20' E 122°07'510.9
2018-Apr-11 18:58N 25°17' E 122°11'  
Track history (hours):
 
Tides and Currents Weather Stations Pressure Air Temp Water Temp Dewpoint Dewpoint Depression Visibility Wind Speed Wind Dir Waves Ship Positions

Mandarin Trader

Last reported at 2018-Apr-21 16:14 UTC. Time now 2018-Jul-18 02:55 UTC.
Position N 24°53' E 122°15'.
Warning: this ship's position is months out of date.

Length 190 m; draft 6.8 m.

Type: Other ship. MMSI: 566227000.

Date/timePositionNaut miles runAvg speedWind from/ knotsBaromVisibWave heightAir tempDewpointWater temp
2018-Apr-21 16:14N 24°53' E 122°15'911.1
2018-Apr-21 15:27N 25°01' E 122°12'1111.9
2018-Apr-21 14:30N 25°10' E 122°04'612.7
2018-Apr-21 14:00N 25°14' E 121°59'612.7
2018-Apr-21 13:30N 25°18' E 121°53'713.0
2018-Apr-21 13:00N 25°22' E 121°48'713.2
2018-Apr-21 12:29N 25°26' E 121°42'814.0
2018-Apr-21 11:55N 25°31' E 121°35'714.2
2018-Apr-21 11:27N 25°35' E 121°29'  
2018-Apr-11 22:02N 25°40' E 121°40'112.3
2018-Apr-11 21:56N 25°39' E 121°41'2012.6
2018-Apr-11 20:22N 25°28' E 121°59'511.6
2018-Apr-11 19:58N 25°25' E 122°03'610.8
2018-Apr-11 19:24N 25°20' E 122°07'510.9
2018-Apr-11 18:58N 25°17' E 122°11'  

Dump ship's entire track history